Hafford, Canada
Current Conditions -  °F | °C
As of 3:00 PM on Sunday 23 Nov 2014 (Local Time) from CYQW Reporting Station
Overcast Overcast  
Wind Chill:   Ceiling: 1300
Heat Index: 16°   Visibility: 9mi
Dew Point: 12°   Wind: 9mph
Humidity: 86%   Direction: 260°W
Pressure: 29.84"   Gusts: NA
Location:  52.72°N, 107.35°W
Report Text: CYQW 232100Z AUTO 26008KT 9SM OVC013 M09/M11 A2984 RMK SLP142
Loading
Personal Weather Stations






























Interactive Weather Map New forecast layout! Learn more

10-Day Weather Forecast

Advertisements
Track Severe Weather on mobile